Flight Track Log - Related Links

Times and Time Zones

All times are in EST time to prevent confusion due to time zone crossing. See the UAL3589 flight status page for this flight to view local times or setup timezone preferences in your user account.

Time Position Orientation Groundspeed Altitude Reporting Facility
EST Latitude Longitude Course Direction KTS MPH feet Rate Location/Type
Mon 03:15:57 PM 42.9333 -78.7333 180° South 123 142 1,400  Level Buffalo TRACON
Mon 03:17:03 PM 42.9000 -78.7333 180° South 178 205 2,900 1,429 Climbing Buffalo TRACON
Mon 03:18:03 PM 42.8833 -78.6500 105° East 252 290 4,400 1,415 Climbing Buffalo TRACON
Mon 03:19:06 PM 42.8867 -78.5700 87° East 228 262 5,800 1,500 Climbing Cleveland Center
Mon 03:20:07 PM 42.8842 -78.4789 92° East 229 264 7,500 1,463 Climbing Cleveland Center
Mon 03:21:09 PM 42.8814 -78.3997 93° East 219 252 8,800 1,220 Climbing Cleveland Center
Mon 03:22:10 PM 42.8778 -78.3081 93° East 231 266 10,000 1,366 Climbing Cleveland Center
Mon 03:23:12 PM 42.8747 -78.2281 93° East 225 259 11,600 1,317 Climbing Cleveland Center
Mon 03:24:13 PM 42.8631 -78.1469 101° East 219 252 12,700 1,220 Climbing Cleveland Center
Mon 03:25:15 PM 42.8414 -78.0675 110° East 224 258 14,100 1,171 Climbing Cleveland Center
Mon 03:26:16 PM 42.8147 -77.9683 110° East 234 269 15,100 439 Climbing Cleveland Center
Mon 03:27:18 PM 42.7883 -77.8711 110° East 270 311 15,000 -98 Descending Cleveland Center
Mon 03:28:19 PM 42.7611 -77.7689 110° East 284 327 14,900 -49 Descending Cleveland Center
Mon 03:29:21 PM 42.7331 -77.6672 111° Southeast 284 327 14,900  Level Cleveland Center
Mon 03:30:22 PM 42.7050 -77.5644 110° East 283 326 14,900  Level Cleveland Center
Mon 03:31:24 PM 42.6775 -77.4639 110° East 279 321 14,900  Level Cleveland Center
Mon 03:32:25 PM 42.6506 -77.3653 110° East 278 320 14,900 98 Level Cleveland Center
Mon 03:33:27 PM 42.6236 -77.2675 111° Southeast 278 320 15,100 98 Climbing Cleveland Center
Mon 03:34:28 PM 42.5969 -77.1706 110° East 276 318 15,100  Level Cleveland Center
Mon 03:35:30 PM 42.5686 -77.0708 111° Southeast 280 322 15,100  Level Cleveland Center
Mon 03:36:31 PM 42.5411 -76.9703 110° East 284 327 15,100  Level Cleveland Center
Mon 03:37:33 PM 42.5117 -76.8678 111° Southeast 289 333 15,100  Level Cleveland Center
Mon 03:38:38 PM 42.4769 -76.7417 110° East 281 323 15,100  Level New York Center
Mon 03:39:48 PM 42.4447 -76.6267 111° Southeast 288 331 15,100  Level Boston Center
Mon 03:40:48 PM 42.4167 -76.5275 111° Southeast 284 327 15,100  Level Boston Center
Mon 03:41:50 PM 42.3872 -76.4272 112° Southeast 288 331 15,100  Level Boston Center
Mon 03:42:50 PM 42.3589 -76.3267 111° Southeast 287 330 15,100  Level Boston Center
Mon 03:43:41 PM 42.3353 -76.2483 112° Southeast 286 329 15,100  Level Cleveland Center
Mon 03:44:43 PM 42.3081 -76.1506 111° Southeast 281 323 15,100  Level Cleveland Center
Mon 03:45:44 PM 42.2747 -76.0328 111° Southeast 280 322 15,100  Level Cleveland Center
Mon 03:46:46 PM 42.2458 -75.9364 112° Southeast 278 320 15,100  Level Cleveland Center
Mon 03:47:56 PM 42.2211 -75.8464 110° East 273 314 15,100  Level Boston Center
Mon 03:48:58 PM 42.1869 -75.7311 112° Southeast 275 316 15,100  Level Boston Center
Mon 03:49:59 PM 42.1586 -75.6344 112° Southeast 277 319 15,100  Level Boston Center
Mon 03:51:00 PM 42.1300 -75.5375 112° Southeast 278 320 15,100  Level Boston Center
Mon 03:52:00 PM 42.1017 -75.4408 112° Southeast 278 320 15,100  Level Boston Center
Mon 03:53:01 PM 42.0728 -75.3422 112° Southeast 281 323 15,100  Level Boston Center
Mon 03:54:04 PM 42.0414 -75.2492 114° Southeast 277 319 15,100 -49 Level Boston Center
Mon 03:55:04 PM 42.0042 -75.1589 119° Southeast 276 318 15,000 -50 Descending Boston Center
Mon 03:56:05 PM 41.9664 -75.0572 117° Southeast 272 313 15,000  Level Boston Center
Mon 03:57:06 PM 41.9322 -74.9678 117° Southeast 269 310 15,000  Level Boston Center
Mon 03:58:09 PM 41.8964 -74.8711 116° Southeast 269 310 15,000 -339 Level Boston Center
Mon 03:59:10 PM 41.8547 -74.7964 127° Southeast 246 283 14,300 -1,190 Descending Boston Center
Mon 04:00:10 PM 41.8019 -74.7394 141° Southeast 243 280 12,600 -1,636 Descending Boston Center
Mon 04:01:11 PM 41.7458 -74.6803 142° Southeast 256 295 11,000 -1,597 Descending Boston Center
Mon 04:02:14 PM 41.6883 -74.6178 141° Southeast 265 305 9,300 -1,645 Descending Boston Center
Mon 04:03:15 PM 41.6225 -74.5542 144° Southeast 270 311 7,600 -1,574 Descending Boston Center
Mon 04:04:16 PM 41.5558 -74.5636 186° South 241 277 6,100 -793 Descending Boston Center
Mon 04:05:16 PM 41.4872 -74.5750 187° South 249 287 6,000 -50 Descending Boston Center
Mon 04:06:17 PM 41.4186 -74.5892 189° South 250 288 6,000  Level Boston Center
Mon 04:07:17 PM 41.3489 -74.6128 194° South 244 281 6,000  Level Boston Center
Mon 04:08:18 PM 41.2828 -74.5753 157° South 262 302 6,000  Level Boston Center
Mon 04:09:19 PM 41.2172 -74.5336 154° Southeast 265 305 6,000  Level Boston Center
Mon 04:10:32 PM 41.1333 -74.4833 156° South 265 305 6,000  Level New York TRACON
Mon 04:11:32 PM 41.0667 -74.4333 151° Southeast 265 305 6,000 -200 Level New York TRACON
Mon 04:12:32 PM 41.0000 -74.4500 191° South 251 289 5,600 -526 Descending New York TRACON
Mon 04:13:26 PM 40.9333 -74.4333 169° South 267 307 5,000 -300 Descending New York TRACON
Mon 04:14:32 PM 40.9500 -74.3333 78° East 269 310 5,000 -143 Level New York TRACON
Mon 04:15:32 PM 40.9333 -74.2333 102° East 273 314 4,700 -600 Descending New York TRACON
Mon 04:16:32 PM 40.9000 -74.1500 118° Southeast 257 296 3,800 -700 Descending New York TRACON
Mon 04:17:32 PM 40.8667 -74.0833 123° Southeast 217 250 3,300 -650 Descending New York TRACON
Mon 04:18:32 PM 40.8167 -74.0833 180° South 206 237 2,500 -700 Descending New York TRACON
Mon 04:19:32 PM 40.7667 -74.0667 166° South 189 217 1,900 -600 Descending New York TRACON
Mon 04:20:32 PM 40.7167 -74.0833 194° South 168 193 1,300 -600 Descending New York TRACON
Mon 04:21:32 PM 40.7000 -74.1167 237° Southwest 123 142 700 -600 Descending New York TRACON

Login

Don't have an account? Register now (free) for customized features, flight alerts, and more!